Time;durP1;ratioP1;P1;durP2;ratioP2;P2;SDS_P1;SDS_P2;PMS_P1;PMS_P2;Temp;Humidity;BMP_temperature;BMP_pressure;BME280_temperature;BME280_humidity;BME280_pressure;Samples;Min_cycle;Max_cycle;Signal;HPM_P1;HPM_P2
2022/06/08 00:01:32;;;;;;;;;;;;;;;28.30;39.05;100269.44;5056715;28;974;-36
2022/06/08 00:03:57;;;;;;;;;;;;;;;28.31;38.96;100263.81;5038254;28;1217;-37
2022/06/08 00:06:23;;;;;;;;;;;;;;;28.29;39.00;100256.94;5037471;28;968;-37
2022/06/08 00:08:48;;;;;;;;;;;;;;;28.32;39.39;100249.28;5055989;28;978;-37
2022/06/08 00:11:14;;;;;;;;;;;;;;;28.29;39.57;100255.09;5056029;28;1989;-37
2022/06/08 00:13:40;;;;;;;;;;;;;;;28.35;39.39;100257.00;5055769;28;986;-37
2022/06/08 00:16:06;;;;;;;;;;;;;;;28.33;39.32;100252.81;5053985;28;997;-37
2022/06/08 00:18:31;;;;;;;;;;;;;;;28.24;39.70;100258.38;5053283;28;970;-36
2022/06/08 00:20:57;;;;;;;;;;;;;;;28.27;39.89;100249.03;5055975;28;1164;-36
2022/06/08 00:23:22;;;;;;;;;;;;;;;28.25;39.78;100261.94;5055815;28;978;-37
2022/06/08 00:25:47;;;;;;;;;;;;;;;28.26;40.02;100254.66;5055225;28;1092;-37
2022/06/08 00:28:13;;;;;;;;;;;;;;;28.21;39.89;100261.50;5055595;28;1008;-37
2022/06/08 00:30:38;;;;;;;;;;;;;;;28.19;40.06;100257.34;5037292;28;1044;-37
2022/06/08 00:33:03;;;;;;;;;;;;;;;28.22;40.33;100259.63;5055749;28;1955;-37
2022/06/08 00:35:29;;;;;;;;;;;;;;;28.22;40.26;100260.47;5051602;28;1085;-37
2022/06/08 00:37:54;;;;;;;;;;;;;;;28.22;40.32;100259.63;5055669;28;871;-37
2022/06/08 00:40:20;;;;;;;;;;;;;;;28.13;40.27;100263.56;5052440;28;1083;-37
2022/06/08 00:42:46;;;;;;;;;;;;;;;28.21;40.15;100261.50;5055566;28;1171;-38
2022/06/08 00:45:12;;;;;;;;;;;;;;;28.34;40.00;100266.13;5058938;28;942;-36
2022/06/08 00:47:42;;;;;;;;;;;;;;;28.18;40.23;100270.00;5036721;28;1177;-37
2022/06/08 00:50:27;;;;;;;;;;;;;;;28.17;40.04;100265.66;5043107;28;846;-37
2022/06/08 00:52:53;;;;;;;;;;;;;;;28.22;40.62;100265.03;5024908;28;1918;-37
2022/06/08 00:55:19;;;;;;;;;;;;;;;28.18;40.06;100261.06;5051949;28;1213;-37
2022/06/08 00:57:46;;;;;;;;;;;;;;;28.23;39.60;100259.44;5037658;28;989;-37
2022/06/08 01:00:11;;;;;;;;;;;;;;;28.22;39.60;100256.94;5033128;28;1018;-36
2022/06/08 01:02:36;;;;;;;;;;;;;;;28.18;39.76;100269.16;5055625;28;1013;-36
2022/06/08 01:05:21;;;;;;;;;;;;;;;28.21;39.63;100260.69;5056098;28;1089;-36
2022/06/08 01:07:46;;;;;;;;;;;;;;;28.18;39.46;100259.19;5052650;28;938;-36
2022/06/08 01:10:16;;;;;;;;;;;;;;;28.19;39.75;100262.75;5037504;28;983;-36
2022/06/08 01:12:41;;;;;;;;;;;;;;;28.25;39.24;100256.53;5055495;28;1905;-36
2022/06/08 01:15:07;;;;;;;;;;;;;;;28.19;39.47;100265.44;5037756;28;1360;-36
2022/06/08 01:17:32;;;;;;;;;;;;;;;28.15;39.41;100270.41;5055474;28;1112;-36
2022/06/08 01:19:57;;;;;;;;;;;;;;;28.21;39.21;100274.22;5055471;28;1116;-36
2022/06/08 01:22:23;;;;;;;;;;;;;;;28.19;38.98;100270.84;5055026;28;1144;-36
2022/06/08 01:24:49;;;;;;;;;;;;;;;28.22;39.19;100265.03;5055327;28;1132;-36
2022/06/08 01:27:30;;;;;;;;;;;;;;;28.14;39.33;100263.34;5037656;28;998;-37
2022/06/08 01:30:14;;;;;;;;;;;;;;;28.14;39.48;100267.94;5050243;28;1447;-37
2022/06/08 01:32:58;;;;;;;;;;;;;;;28.12;39.49;100268.13;5055310;28;1985;-36
2022/06/08 01:35:27;;;;;;;;;;;;;;;28.13;39.50;100266.25;5054932;28;865;-36
2022/06/08 01:38:04;;;;;;;;;;;;;;;28.11;39.38;100264.56;5037535;28;1128;-36
2022/06/08 01:40:53;;;;;;;;;;;;;;;28.09;39.49;100269.34;5055785;28;1111;-36
2022/06/08 01:43:21;;;;;;;;;;;;;;;28.12;39.99;100268.13;5047969;28;1238;-37
2022/06/08 01:45:55;;;;;;;;;;;;;;;28.08;40.05;100269.56;5058393;28;1119;-37
2022/06/08 01:48:40;;;;;;;;;;;;;;;28.13;39.91;100272.50;5053993;28;1006;-37
2022/06/08 01:51:09;;;;;;;;;;;;;;;28.18;39.61;100266.47;5040899;28;1902;-37
2022/06/08 01:53:37;;;;;;;;;;;;;;;28.08;40.04;100266.84;5058790;28;982;-37
2022/06/08 01:56:03;;;;;;;;;;;;;;;28.20;39.61;100264.41;5054526;28;994;-37
2022/06/08 01:58:51;;;;;;;;;;;;;;;28.34;39.56;100266.13;5054626;28;942;-37
2022/06/08 02:01:23;;;;;;;;;;;;;;;28.18;39.62;100269.16;5040167;28;930;-36
2022/06/08 02:03:57;;;;;;;;;;;;;;;28.14;39.79;100274.19;5059005;28;974;-37
2022/06/08 02:06:24;;;;;;;;;;;;;;;28.14;39.60;100276.88;5040685;28;1077;-37
2022/06/08 02:08:50;;;;;;;;;;;;;;;28.07;39.51;100273.31;5041033;28;1341;-37
2022/06/08 02:11:17;;;;;;;;;;;;;;;28.14;39.54;100285.00;5033570;28;1949;-37
2022/06/08 02:13:44;;;;;;;;;;;;;;;28.08;39.31;100283.91;5053362;28;1125;-37
2022/06/08 02:16:11;;;;;;;;;;;;;;;28.10;39.38;100286.41;5040861;28;1006;-37
2022/06/08 02:18:46;;;;;;;;;;;;;;;28.14;39.16;100289.56;5039940;28;1085;-37
2022/06/08 02:21:32;;;;;;;;;;;;;;;28.06;39.33;100290.56;5035049;28;931;-37
2022/06/08 02:23:59;;;;;;;;;;;;;;;28.09;39.07;100288.28;5040506;28;986;-36
2022/06/08 02:26:28;;;;;;;;;;;;;;;28.08;39.22;100288.47;5039955;28;935;-36
2022/06/08 02:28:56;;;;;;;;;;;;;;;28.14;38.87;100293.09;5057444;28;970;-36
2022/06/08 02:31:21;;;;;;;;;;;;;;;28.07;38.95;100284.13;5040409;28;1894;-36
2022/06/08 02:36:34;;;;;;;;;;;;;;;28.09;38.80;100290.97;5042728;28;875;-37
2022/06/08 02:39:09;;;;;;;;;;;;;;;28.03;38.92;100297.19;5040067;28;838;-37
2022/06/08 02:41:35;;;;;;;;;;;;;;;28.24;39.03;100293.53;5039027;28;1061;-37
2022/06/08 02:44:02;;;;;;;;;;;;;;;28.11;39.00;100293.50;5039866;28;954;-36
2022/06/08 02:46:30;;;;;;;;;;;;;;;28.14;38.89;100290.41;5039761;28;1029;-37
2022/06/08 02:48:55;;;;;;;;;;;;;;;28.19;38.86;100292.50;5039166;28;1042;-37
2022/06/08 02:51:27;;;;;;;;;;;;;;;28.04;39.11;100308.84;5056989;28;1910;-36
2022/06/08 02:53:55;;;;;;;;;;;;;;;28.13;39.06;100302.22;5057601;28;1427;-36
2022/06/08 02:56:38;;;;;;;;;;;;;;;28.15;39.30;100310.13;5057432;28;1088;-44
2022/06/08 02:59:11;;;;;;;;;;;;;;;28.22;39.48;100314.56;5057113;28;1156;-38
2022/06/08 03:01:56;;;;;;;;;;;;;;;28.22;39.40;100316.44;5039621;28;1013;-40
2022/06/08 03:04:23;;;;;;;;;;;;;;;28.22;39.60;100309.16;5055888;28;1105;-41
2022/06/08 03:06:52;;;;;;;;;;;;;;;28.17;39.63;100306.22;5057269;28;1017;-40
2022/06/08 03:09:17;;;;;;;;;;;;;;;28.16;39.27;100312.63;5039394;28;1046;-40
2022/06/08 03:11:44;;;;;;;;;;;;;;;28.18;39.71;100313.28;5037855;28;2293;-40
2022/06/08 03:14:10;;;;;;;;;;;;;;;28.17;39.65;100314.34;5036286;28;1014;-40
2022/06/08 03:16:56;;;;;;;;;;;;;;;28.14;39.89;100317.44;5056949;28;1275;-40
2022/06/08 03:19:21;;;;;;;;;;;;;;;28.07;39.96;100314.69;5055818;28;1172;-40
2022/06/08 03:21:47;;;;;;;;;;;;;;;28.04;40.28;100304.28;5057068;28;1250;-39
2022/06/08 03:24:12;;;;;;;;;;;;;;;28.04;40.25;100304.28;5056516;28;1101;-40
2022/06/08 03:26:39;;;;;;;;;;;;;;;28.05;40.18;100305.94;5056332;28;1214;-39
2022/06/08 03:29:05;;;;;;;;;;;;;;;28.00;40.29;100303.00;5054177;28;1084;-39
2022/06/08 03:31:30;;;;;;;;;;;;;;;28.04;40.13;100304.28;5055873;28;1906;-40
2022/06/08 03:33:55;;;;;;;;;;;;;;;28.02;39.25;100297.41;5056642;28;1124;-40
2022/06/08 03:36:20;;;;;;;;;;;;;;;27.99;39.50;100304.88;5057473;28;969;-40
2022/06/08 03:38:46;;;;;;;;;;;;;;;28.14;39.28;100303.06;5056598;28;1061;-40
2022/06/08 03:41:11;;;;;;;;;;;;;;;28.13;39.25;100304.94;5056132;28;1057;-39
2022/06/08 03:43:37;;;;;;;;;;;;;;;27.73;40.65;100297.44;5056568;28;1135;-37
2022/06/08 03:46:03;;;;;;;;;;;;;;;27.28;41.13;100303.94;5055479;28;946;-37
2022/06/08 03:48:28;;;;;;;;;;;;;;;26.99;41.84;100293.06;5038637;28;1100;-38
2022/06/08 03:50:54;;;;;;;;;;;;;;;27.06;42.11;100295.88;5038754;28;1065;-39
2022/06/08 03:53:21;;;;;;;;;;;;;;;27.51;41.55;100298.31;5056361;28;1973;-38
2022/06/08 03:55:47;;;;;;;;;;;;;;;27.58;41.73;100303.75;5038340;28;979;-39
2022/06/08 03:58:12;;;;;;;;;;;;;;;27.50;41.09;100301.22;5038536;28;1073;-38
2022/06/08 04:00:37;;;;;;;;;;;;;;;27.35;41.29;100304.84;5056265;28;868;-39
2022/06/08 04:03:03;;;;;;;;;;;;;;;27.47;40.85;100307.84;5052232;28;1215;-39
2022/06/08 04:05:29;;;;;;;;;;;;;;;27.53;41.21;100300.81;5054262;28;1172;-40
2022/06/08 04:07:54;;;;;;;;;;;;;;;27.47;41.08;100307.84;5055905;28;892;-39
2022/06/08 04:10:19;;;;;;;;;;;;;;;27.60;40.80;100301.72;5056226;28;1140;-38
2022/06/08 04:12:45;;;;;;;;;;;;;;;27.61;41.05;100311.47;5049896;28;1907;-39
2022/06/08 04:15:10;;;;;;;;;;;;;;;27.83;40.58;100303.34;5054078;28;970;-39
2022/06/08 04:17:35;;;;;;;;;;;;;;;27.75;40.76;100307.03;5051085;28;1163;-41
2022/06/08 04:20:01;;;;;;;;;;;;;;;27.99;40.18;100309.47;5051312;28;1037;-39
2022/06/08 04:22:31;;;;;;;;;;;;;;;28.06;39.66;100304.09;5030848;28;1132;-41
2022/06/08 04:25:00;;;;;;;;;;;;;;;28.09;39.92;100309.91;5046850;28;1056;-41
2022/06/08 04:27:26;;;;;;;;;;;;;;;28.11;39.42;100315.97;5050337;28;1207;-40
2022/06/08 04:29:52;;;;;;;;;;;;;;;28.13;39.71;100317.66;5055530;28;1465;-42
2022/06/08 04:32:17;;;;;;;;;;;;;;;28.06;39.82;100323.81;5055634;28;1967;-40
2022/06/08 04:34:42;;;;;;;;;;;;;;;28.03;40.31;100315.31;5055415;28;1025;-39
2022/06/08 04:37:08;;;;;;;;;;;;;;;27.98;39.86;100321.28;5049438;28;1009;-45
2022/06/08 04:39:33;;;;;;;;;;;;;;;27.97;39.92;100327.75;5046226;28;1009;-41
2022/06/08 04:41:58;;;;;;;;;;;;;;;28.09;40.04;100328.84;5049767;28;1029;-42
2022/06/08 04:44:24;;;;;;;;;;;;;;;28.25;39.66;100324.13;5049276;28;989;-39
2022/06/08 04:46:50;;;;;;;;;;;;;;;28.26;39.00;100323.09;5050033;28;1043;-38
2022/06/08 04:49:15;;;;;;;;;;;;;;;28.23;38.95;100321.63;5052471;28;1082;-40
2022/06/08 04:51:40;;;;;;;;;;;;;;;28.32;39.77;100324.16;5053943;28;1903;-43
2022/06/08 04:54:06;;;;;;;;;;;;;;;28.20;39.43;100321.19;5055029;28;1001;-41
2022/06/08 04:56:31;;;;;;;;;;;;;;;28.13;39.10;100326.56;5054610;28;1190;-41
2022/06/08 04:58:57;;;;;;;;;;;;;;;28.17;39.39;100314.34;5048744;28;766;-44
2022/06/08 05:01:22;;;;;;;;;;;;;;;28.19;39.69;100309.56;5055364;28;977;-41
2022/06/08 05:03:47;;;;;;;;;;;;;;;28.20;39.29;100310.38;5054239;28;1214;-41
2022/06/08 05:06:13;;;;;;;;;;;;;;;28.17;39.59;100318.91;5055082;28;1084;-41
2022/06/08 05:08:40;;;;;;;;;;;;;;;28.20;39.69;100313.09;5054134;28;1236;-43
2022/06/08 05:11:06;;;;;;;;;;;;;;;28.29;39.59;100324.56;5050196;28;1025;-41
2022/06/08 05:13:31;;;;;;;;;;;;;;;28.28;39.63;100329.13;5055356;28;1893;-42
2022/06/08 05:15:56;;;;;;;;;;;;;;;28.35;39.60;100331.91;5053897;28;1233;-42
2022/06/08 05:18:22;;;;;;;;;;;;;;;28.39;39.67;100330.47;5055464;28;981;-45
2022/06/08 05:20:47;;;;;;;;;;;;;;;28.50;39.98;100328.19;5055804;28;1183;-44
2022/06/08 05:23:14;;;;;;;;;;;;;;;28.55;39.60;100336.56;5041253;28;1100;-32
2022/06/08 05:25:40;;;;;;;;;;;;;;;28.54;39.61;100337.59;5058623;28;1184;-33
2022/06/08 05:28:06;;;;;;;;;;;;;;;28.56;40.07;100333.63;5058866;28;1012;-32
2022/06/08 05:30:32;;;;;;;;;;;;;;;28.66;39.74;100337.84;5059332;28;841;-32
2022/06/08 05:32:57;;;;;;;;;;;;;;;28.64;39.42;100337.22;5058860;28;1985;-32
2022/06/08 05:35:23;;;;;;;;;;;;;;;28.56;39.52;100335.53;5053691;28;985;-32
2022/06/08 05:37:49;;;;;;;;;;;;;;;28.51;39.53;100329.91;5058637;28;831;-32
2022/06/08 05:40:14;;;;;;;;;;;;;;;28.44;39.10;100325.31;5058912;28;982;-34
2022/06/08 05:42:40;;;;;;;;;;;;;;;28.45;39.39;100324.25;5055527;28;1143;-32
2022/06/08 05:45:05;;;;;;;;;;;;;;;28.48;39.28;100329.25;5058218;28;901;-32
2022/06/08 05:47:31;;;;;;;;;;;;;;;28.56;39.15;100330.13;5056434;28;1111;-32
2022/06/08 05:49:56;;;;;;;;;;;;;;;28.56;38.94;100330.94;5055754;28;1144;-32
2022/06/08 05:52:21;;;;;;;;;;;;;;;28.58;39.08;100337.00;5058650;28;1905;-33
2022/06/08 05:54:47;;;;;;;;;;;;;;;28.57;39.36;100335.34;5054946;28;1140;-32
2022/06/08 05:57:13;;;;;;;;;;;;;;;28.48;39.21;100329.25;5050437;28;970;-32
2022/06/08 05:59:38;;;;;;;;;;;;;;;28.55;39.39;100340.09;5051721;28;982;-32
2022/06/08 06:02:04;;;;;;;;;;;;;;;28.53;39.84;100330.53;5054644;28;919;-32
2022/06/08 06:04:29;;;;;;;;;;;;;;;28.57;39.62;100337.19;5058794;28;1064;-33
2022/06/08 06:06:54;;;;;;;;;;;;;;;28.59;39.89;100341.34;5051147;28;950;-33
2022/06/08 06:09:20;;;;;;;;;;;;;;;28.58;39.44;100349.66;5048500;28;1017;-32
2022/06/08 06:11:45;;;;;;;;;;;;;;;28.67;39.70;100342.22;5053568;28;1910;-32
2022/06/08 06:14:11;;;;;;;;;;;;;;;28.64;39.84;100348.03;5051946;28;1168;-32
2022/06/08 06:16:36;;;;;;;;;;;;;;;28.67;39.75;100347.63;5058012;28;1010;-32
2022/06/08 06:19:01;;;;;;;;;;;;;;;28.82;39.81;100350.16;5058553;28;1159;-34
2022/06/08 06:21:27;;;;;;;;;;;;;;;28.96;39.59;100354.56;5056275;28;1095;-33
2022/06/08 06:23:52;;;;;;;;;;;;;;;28.96;38.97;100340.22;5056946;28;1175;-31
2022/06/08 06:26:18;;;;;;;;;;;;;;;28.83;39.21;100346.41;5051103;28;1029;-31
2022/06/08 06:28:43;;;;;;;;;;;;;;;28.90;39.27;100341.00;5051333;28;842;-40
2022/06/08 06:31:10;;;;;;;;;;;;;;;28.96;39.08;100342.94;5051780;28;1044;-40
2022/06/08 06:33:36;;;;;;;;;;;;;;;28.96;38.66;100342.94;5035060;28;1902;-35
2022/06/08 06:36:01;;;;;;;;;;;;;;;28.90;38.86;100339.16;5053432;28;1080;-40
2022/06/08 06:38:26;;;;;;;;;;;;;;;28.94;39.20;100347.69;5054497;28;1040;-38
2022/06/08 06:40:51;;;;;;;;;;;;;;;29.08;38.72;100338.59;5056739;28;1072;-37
2022/06/08 06:43:17;;;;;;;;;;;;;;;29.05;38.91;100341.72;5054182;28;1159;-38
2022/06/08 06:45:43;;;;;;;;;;;;;;;29.02;38.59;100344.84;5057456;28;1018;-39
2022/06/08 06:48:08;;;;;;;;;;;;;;;29.04;39.08;100345.47;5057581;28;1222;-39
2022/06/08 06:50:33;;;;;;;;;;;;;;;29.06;38.74;100345.25;5057875;28;1075;-38
2022/06/08 06:53:01;;;;;;;;;;;;;;;29.11;38.94;100342.78;5055245;28;1918;-37
2022/06/08 06:55:28;;;;;;;;;;;;;;;29.04;38.96;100340.06;5054782;28;1100;-39
2022/06/08 06:57:54;;;;;;;;;;;;;;;29.10;39.11;100343.78;5052303;28;1049;-39
2022/06/08 07:00:20;;;;;;;;;;;;;;;29.12;39.08;100346.28;5057629;28;893;-37
2022/06/08 07:02:45;;;;;;;;;;;;;;;28.96;39.37;100342.94;5053606;28;1095;-38
2022/06/08 07:05:12;;;;;;;;;;;;;;;29.00;39.17;100348.78;5051385;28;1017;-38
2022/06/08 07:07:37;;;;;;;;;;;;;;;29.09;41.14;100347.56;5039529;28;990;-42
2022/06/08 07:10:06;;;;;;;;;;;;;;;29.09;39.12;100350.25;5052758;28;1017;-39
2022/06/08 07:12:31;;;;;;;;;;;;;;;29.00;39.03;100346.91;5057153;28;1894;-40
2022/06/08 07:14:56;;;;;;;;;;;;;;;29.02;39.45;100352.97;5055838;28;997;-35
2022/06/08 07:17:21;;;;;;;;;;;;;;;29.03;39.57;100345.69;5052604;28;1195;-40
2022/06/08 07:19:47;;;;;;;;;;;;;;;29.03;39.67;100345.69;5055647;28;912;-38
2022/06/08 07:22:12;;;;;;;;;;;;;;;29.06;39.61;100348.78;5056293;28;1171;-40
2022/06/08 07:24:37;;;;;;;;;;;;;;;29.07;39.36;100353.19;5056789;28;966;-39
2022/06/08 07:27:03;;;;;;;;;;;;;;;29.03;39.45;100351.91;5025847;28;993;-39
2022/06/08 07:29:28;;;;;;;;;;;;;;;29.01;39.76;100355.88;5050934;28;1017;-40
2022/06/08 07:31:54;;;;;;;;;;;;;;;29.04;39.66;100358.16;5055872;28;1951;-40
2022/06/08 07:34:19;;;;;;;;;;;;;;;29.02;39.49;100355.66;5057382;28;1005;-39
2022/06/08 07:36:44;;;;;;;;;;;;;;;29.02;39.38;100352.13;5056943;28;1009;-40
2022/06/08 07:39:10;;;;;;;;;;;;;;;28.96;38.93;100356.47;5055127;28;1028;-38
2022/06/08 07:41:36;;;;;;;;;;;;;;;28.93;39.42;100352.28;5057212;28;1088;-40
2022/06/08 07:44:01;;;;;;;;;;;;;;;28.95;39.79;100362.91;5054794;28;1067;-40
2022/06/08 07:46:29;;;;;;;;;;;;;;;29.14;39.41;100355.91;5055858;28;1188;-41
2022/06/08 07:51:38;;;;;;;;;;;;;;;29.07;39.39;100349.63;5050570;28;1906;-40
2022/06/08 07:54:04;;;;;;;;;;;;;;;29.05;39.41;100349.00;5056030;28;1029;-42
2022/06/08 07:56:29;;;;;;;;;;;;;;;29.06;39.77;100345.25;5056204;28;1100;-40
2022/06/08 07:58:54;;;;;;;;;;;;;;;29.05;39.46;100351.69;5055969;28;906;-38
2022/06/08 08:01:20;;;;;;;;;;;;;;;29.03;39.55;100348.38;5038070;28;1111;-40
2022/06/08 08:03:45;;;;;;;;;;;;;;;29.06;39.51;100356.09;5053476;28;1064;-38
2022/06/08 08:06:10;;;;;;;;;;;;;;;29.05;39.85;100359.81;5049971;28;1005;-38
2022/06/08 08:08:36;;;;;;;;;;;;;;;29.08;39.82;100360.25;5055276;28;1060;-39
2022/06/08 08:11:02;;;;;;;;;;;;;;;29.01;39.65;100359.38;5053379;28;1151;-40
2022/06/08 08:13:28;;;;;;;;;;;;;;;29.03;39.55;100364.63;5056453;28;1913;-38
2022/06/08 08:15:53;;;;;;;;;;;;;;;29.03;39.79;100360.03;5052578;28;1151;-40
2022/06/08 08:18:19;;;;;;;;;;;;;;;28.95;39.84;100354.78;5056562;28;1112;-39
2022/06/08 08:20:44;;;;;;;;;;;;;;;28.96;40.04;100362.69;5054794;28;1210;-38
2022/06/08 08:23:09;;;;;;;;;;;;;;;28.93;40.20;100357.69;5049222;28;867;-38
2022/06/08 08:25:35;;;;;;;;;;;;;;;28.93;40.42;100363.09;5049086;28;1187;-39
2022/06/08 08:28:00;;;;;;;;;;;;;;;28.91;40.14;100354.34;5046092;28;993;-38
2022/06/08 08:30:26;;;;;;;;;;;;;;;28.96;40.06;100356.47;5055347;28;892;-39
2022/06/08 08:32:52;;;;;;;;;;;;;;;28.95;40.32;100349.34;5056121;28;1910;-39
2022/06/08 08:35:17;;;;;;;;;;;;;;;28.98;40.30;100364.41;5055794;28;861;-39
2022/06/08 08:37:45;;;;;;;;;;;;;;;28.95;40.33;100362.91;5052756;28;1140;-38
2022/06/08 08:40:29;;;;;;;;;;;;;;;28.73;40.94;100374.72;5054336;28;1143;-39
2022/06/08 08:42:55;;;;;;;;;;;;;;;28.86;40.50;100375.81;5054254;28;1234;-40
2022/06/08 08:45:20;;;;;;;;;;;;;;;28.95;40.36;100377.28;5037527;28;951;-41
2022/06/08 08:47:48;;;;;;;;;;;;;;;28.99;40.03;100366.06;5053364;28;1085;-41
2022/06/08 08:50:24;;;;;;;;;;;;;;;28.95;40.12;100365.59;5051215;28;1041;-41
2022/06/08 08:53:07;;;;;;;;;;;;;;;28.88;40.34;100364.78;5050239;28;1977;-39
2022/06/08 08:55:38;;;;;;;;;;;;;;;28.81;40.44;100359.34;5051427;28;1073;-43
2022/06/08 08:58:07;;;;;;;;;;;;;;;28.79;41.00;100362.25;5048910;28;1041;-41
2022/06/08 09:00:49;;;;;;;;;;;;;;;28.75;40.87;100357.44;5054301;28;841;-41
2022/06/08 09:03:17;;;;;;;;;;;;;;;28.70;41.10;100363.47;5053062;28;1160;-40
2022/06/08 09:05:42;;;;;;;;;;;;;;;28.64;41.17;100367.81;5055687;28;1242;-40
2022/06/08 09:08:11;;;;;;;;;;;;;;;28.67;40.95;100366.56;5055352;28;1041;-43
2022/06/08 09:10:36;;;;;;;;;;;;;;;28.71;40.94;100365.16;5052803;28;1176;-43
2022/06/08 09:13:02;;;;;;;;;;;;;;;28.74;40.79;100370.16;5055018;28;1972;-40
2022/06/08 09:15:40;;;;;;;;;;;;;;;28.78;40.60;100371.41;5034427;28;1298;-40
2022/06/08 09:18:06;;;;;;;;;;;;;;;28.71;40.71;100365.97;5054477;28;985;-40
2022/06/08 09:20:32;;;;;;;;;;;;;;;28.77;40.86;100358.06;5055345;28;1128;-41
2022/06/08 09:22:58;;;;;;;;;;;;;;;28.78;40.83;100365.97;5048904;28;1033;-41
2022/06/08 09:25:26;;;;;;;;;;;;;;;28.78;40.84;100370.59;5030500;28;1176;-41
2022/06/08 09:27:52;;;;;;;;;;;;;;;28.73;41.03;100369.31;5045041;28;1203;-41
2022/06/08 09:30:21;;;;;;;;;;;;;;;28.77;41.02;100379.72;5036388;28;931;-40
2022/06/08 09:32:46;;;;;;;;;;;;;;;28.79;40.97;100389.31;5048031;28;1905;-42
2022/06/08 09:35:14;;;;;;;;;;;;;;;28.76;40.95;100387.00;5052654;28;1057;-39
2022/06/08 09:37:40;;;;;;;;;;;;;;;28.70;40.75;100387.81;5052782;28;1132;-40
2022/06/08 09:40:05;;;;;;;;;;;;;;;28.71;41.04;100384.09;5054825;28;1192;-39
2022/06/08 09:42:38;;;;;;;;;;;;;;;28.67;40.78;100389.06;5049073;28;1231;-41
2022/06/08 09:45:05;;;;;;;;;;;;;;;28.72;40.87;100389.28;5030758;28;904;-40
2022/06/08 09:53:29;;;;;;;;;;;;;;;28.61;41.35;100381.75;5035050;28;1890;-42
2022/06/08 09:56:00;;;;;;;;;;;;;;;28.59;41.16;100381.94;5051205;28;1025;-40
2022/06/08 09:58:44;;;;;;;;;;;;;;;28.59;41.13;100381.13;5037309;28;1196;-41
2022/06/08 10:01:21;;;;;;;;;;;;;;;28.59;41.34;100375.72;5055461;28;1062;-40
2022/06/08 10:03:49;;;;;;;;;;;;;;;28.56;41.11;100379.63;5058191;28;1016;-42
2022/06/08 10:06:21;;;;;;;;;;;;;;;28.62;41.17;100379.88;5058224;28;1092;-41
2022/06/08 10:09:06;;;;;;;;;;;;;;;28.59;41.10;100375.72;5031119;28;1106;-40
2022/06/08 10:11:46;;;;;;;;;;;;;;;28.66;41.12;100381.16;5053934;28;1955;-40
2022/06/08 10:14:42;;;;;;;;;;;;;;;28.59;41.13;100375.72;5040041;28;1223;-42
2022/06/08 10:17:17;;;;;;;;;;;;;;;28.62;41.13;100378.00;5039873;28;1489;-40
2022/06/08 10:19:43;;;;;;;;;;;;;;;28.65;40.88;100374.91;5058381;28;981;-42
2022/06/08 10:22:08;;;;;;;;;;;;;;;28.67;40.83;100370.13;5055242;28;1194;-41
2022/06/08 10:24:47;;;;;;;;;;;;;;;28.60;40.53;100377.38;5038965;28;1116;-41
2022/06/08 10:27:17;;;;;;;;;;;;;;;28.61;40.74;100368.25;5057028;28;1175;-41
2022/06/08 10:29:46;;;;;;;;;;;;;;;28.64;40.77;100359.72;5038820;28;1045;-41
2022/06/08 10:32:11;;;;;;;;;;;;;;;28.67;40.73;100356.59;5037484;28;1898;-41
2022/06/08 10:34:37;;;;;;;;;;;;;;;28.71;40.36;100354.31;5054523;28;1434;-41
2022/06/08 10:37:08;;;;;;;;;;;;;;;28.71;40.41;100354.31;5052567;28;989;-40
2022/06/08 10:39:34;;;;;;;;;;;;;;;28.70;40.57;100355.34;5053413;28;1096;-42
2022/06/08 10:44:50;;;;;;;;;;;;;;;28.78;40.18;100354.34;5057020;28;889;-42
2022/06/08 10:47:16;;;;;;;;;;;;;;;28.79;40.12;100362.25;5056661;28;1076;-41
2022/06/08 10:49:45;;;;;;;;;;;;;;;28.79;40.19;100358.69;5055446;28;1072;-41
2022/06/08 10:52:15;;;;;;;;;;;;;;;28.83;40.22;100349.97;5057037;28;1894;-40
2022/06/08 10:54:56;;;;;;;;;;;;;;;28.78;40.38;100359.75;5056394;28;907;-43
2022/06/08 10:57:31;;;;;;;;;;;;;;;28.76;40.20;100356.41;5052035;28;969;-41
2022/06/08 11:00:15;;;;;;;;;;;;;;;28.82;40.19;100361.84;5053528;28;899;-41
2022/06/08 11:02:40;;;;;;;;;;;;;;;28.74;40.34;100356.63;5053279;28;1029;-41
2022/06/08 11:05:06;;;;;;;;;;;;;;;28.86;40.12;100364.97;5038908;28;1196;-41
2022/06/08 11:07:36;;;;;;;;;;;;;;;28.85;39.92;100358.72;5054351;28;1005;-40
2022/06/08 11:10:03;;;;;;;;;;;;;;;28.81;40.00;100357.44;5039234;28;1233;-42
2022/06/08 11:12:32;;;;;;;;;;;;;;;28.73;40.05;100361.19;5055739;28;1885;-41
2022/06/08 11:14:59;;;;;;;;;;;;;;;28.78;40.10;100362.47;5039001;28;1051;-40
2022/06/08 11:17:33;;;;;;;;;;;;;;;28.76;39.89;100359.94;5035471;28;1197;-41
2022/06/08 11:20:03;;;;;;;;;;;;;;;28.73;39.73;100355.78;5054951;28;1052;-38
2022/06/08 11:22:39;;;;;;;;;;;;;;;28.69;40.18;100356.38;5056583;28;850;-37
2022/06/08 11:25:05;;;;;;;;;;;;;;;28.78;38.36;100349.75;5038197;28;1121;-33
2022/06/08 11:27:32;;;;;;;;;;;;;;;28.73;39.17;100346.81;5057355;28;790;-40
2022/06/08 11:29:58;;;;;;;;;;;;;;;28.75;39.46;100352.00;5057270;28;1045;-39
2022/06/08 11:32:32;;;;;;;;;;;;;;;28.79;39.63;100348.72;5057260;28;1886;-39
2022/06/08 11:35:04;;;;;;;;;;;;;;;28.79;39.84;100353.28;5059120;28;1555;-37
2022/06/08 11:37:45;;;;;;;;;;;;;;;28.76;39.32;100342.88;5076658;28;794;-39
2022/06/08 11:40:14;;;;;;;;;;;;;;;28.62;39.78;100347.41;5076652;28;796;-40
2022/06/08 11:42:50;;;;;;;;;;;;;;;28.83;39.88;100347.25;5077050;28;761;-39
2022/06/08 11:45:20;;;;;;;;;;;;;;;28.86;39.82;100340.63;5064074;28;979;-40
2022/06/08 11:47:52;;;;;;;;;;;;;;;28.83;40.11;100341.84;5055341;28;1606;-41
2022/06/08 11:50:43;;;;;;;;;;;;;;;28.71;40.53;100338.88;5055630;28;954;-41
2022/06/08 11:53:16;;;;;;;;;;;;;;;28.87;40.06;100341.44;5051139;28;1910;-41
2022/06/08 11:55:50;;;;;;;;;;;;;;;28.89;40.28;100337.50;5056689;28;790;-41
2022/06/08 11:58:20;;;;;;;;;;;;;;;28.87;40.40;100327.91;5037785;28;854;-39
2022/06/08 12:00:49;;;;;;;;;;;;;;;28.89;40.61;100325.81;5056688;28;951;-40
2022/06/08 12:03:15;;;;;;;;;;;;;;;28.96;40.76;100326.69;5056991;28;845;-40
2022/06/08 12:05:40;;;;;;;;;;;;;;;28.92;40.73;100320.84;5056460;28;758;-40
2022/06/08 12:08:08;;;;;;;;;;;;;;;28.81;39.14;100321.44;5054359;28;1499;-40
2022/06/08 12:10:34;;;;;;;;;;;;;;;28.82;39.14;100321.25;5056145;28;970;-40
2022/06/08 12:12:59;;;;;;;;;;;;;;;26.93;41.88;100311.91;5037949;28;1965;-40
2022/06/08 12:15:32;;;;;;;;;;;;;;;23.63;49.21;100293.53;5038425;28;1069;-40
2022/06/08 12:18:07;;;;;;;;;;;;;;;23.14;52.59;100300.59;5056660;28;1013;-40
2022/06/08 12:20:34;;;;;;;;;;;;;;;22.76;53.95;100304.56;5055281;28;1013;-41
2022/06/08 12:23:00;;;;;;;;;;;;;;;22.48;54.35;100304.78;5055745;28;1074;-38
2022/06/08 12:25:27;;;;;;;;;;;;;;;22.24;54.67;100295.66;5053775;28;957;-40
2022/06/08 12:27:56;;;;;;;;;;;;;;;22.13;55.00;100288.75;5055554;28;977;-39
2022/06/08 12:30:31;;;;;;;;;;;;;;;22.07;55.15;100281.34;5055843;28;1168;-40
2022/06/08 12:32:57;;;;;;;;;;;;;;;21.81;56.54;100285.75;5055971;28;1905;-42
2022/06/08 12:35:25;;;;;;;;;;;;;;;23.24;55.32;100280.63;5055370;28;1045;-43
2022/06/08 12:38:01;;;;;;;;;;;;;;;25.58;47.66;100273.28;5055449;28;883;-43
2022/06/08 12:40:28;;;;;;;;;;;;;;;26.43;45.51;100267.59;5055635;28;1135;-43
2022/06/08 12:43:14;;;;;;;;;;;;;;;26.86;45.77;100266.81;5055455;28;1017;-44
2022/06/08 12:45:40;;;;;;;;;;;;;;;27.48;43.24;100265.44;5054548;28;1714;-44
2022/06/08 12:48:25;;;;;;;;;;;;;;;27.56;42.86;100261.78;5055430;28;1139;-41
2022/06/08 12:50:51;;;;;;;;;;;;;;;27.62;44.41;100255.56;5055031;28;1171;-41
2022/06/08 12:53:17;;;;;;;;;;;;;;;27.83;42.24;100253.84;5037452;28;1961;-39
2022/06/08 12:55:42;;;;;;;;;;;;;;;27.28;42.13;100243.72;5055035;28;997;-39
2022/06/08 12:58:08;;;;;;;;;;;;;;;22.96;54.20;100239.88;5055633;28;1029;-40
2022/06/08 13:00:36;;;;;;;;;;;;;;;22.30;55.80;100236.06;5055597;28;1179;-39
2022/06/08 13:03:02;;;;;;;;;;;;;;;22.26;55.80;100240.91;5054318;28;859;-39
2022/06/08 13:05:29;;;;;;;;;;;;;;;21.69;57.33;100236.13;5037707;28;1100;-41
2022/06/08 13:07:54;;;;;;;;;;;;;;;21.56;57.55;100234.69;5055450;28;1231;-42
2022/06/08 13:10:21;;;;;;;;;;;;;;;22.38;58.73;100232.56;5055791;28;1068;-41